Time;durP1;ratioP1;P1;durP2;ratioP2;P2;SDS_P1;SDS_P2;PMS_P1;PMS_P2;Temp;Humidity;BMP_temperature;BMP_pressure;BME280_temperature;BME280_humidity;BME280_pressure;Samples;Min_cycle;Max_cycle;Signal;HPM_P1;HPM_P2
2022/07/25 00:00:54;;;;;;;8.50;7.67;;;;;;;19.16;93.56;99448.23;1802644;77;21146;-80
2022/07/25 00:03:21;;;;;;;8.53;7.72;;;;;;;19.19;93.29;99445.59;1805204;79;21133;-77
2022/07/25 00:05:49;;;;;;;8.98;8.08;;;;;;;19.13;93.18;99445.19;1804942;79;21026;-79
2022/07/25 00:08:17;;;;;;;9.15;7.85;;;;;;;19.02;93.26;99444.91;1749175;82;21108;-77
2022/07/25 00:10:44;;;;;;;9.73;7.67;;;;;;;19.01;93.23;99445.16;1805031;77;21005;-78
2022/07/25 00:13:12;;;;;;;9.05;7.47;;;;;;;19.01;93.05;99449.20;1753031;80;21096;-78
2022/07/25 00:15:39;;;;;;;9.05;8.15;;;;;;;18.92;93.39;99448.69;1783191;77;21531;-80
2022/07/25 00:18:06;;;;;;;11.73;8.08;;;;;;;18.88;93.26;99449.39;1806353;79;20993;-79
2022/07/25 00:20:34;;;;;;;10.20;8.10;;;;;;;18.89;93.29;99439.75;1796218;77;20993;-79
2022/07/25 00:23:02;;;;;;;8.78;7.83;;;;;;;18.84;93.32;99448.49;1776668;79;21032;-78
2022/07/25 00:25:31;;;;;;;7.53;6.83;;;;;;;18.78;93.44;99451.27;1800669;78;20982;-79
2022/07/25 00:28:00;;;;;;;9.10;7.15;;;;;;;18.79;93.36;99450.20;1807973;78;20969;-79
2022/07/25 00:30:26;;;;;;;8.85;8.05;;;;;;;18.84;93.29;99450.38;1788244;78;20954;-79
2022/07/25 00:32:53;;;;;;;11.28;8.33;;;;;;;18.78;93.21;99448.04;1810361;78;21112;-76
2022/07/25 00:35:19;;;;;;;8.28;7.50;;;;;;;18.69;93.42;99458.82;1805720;77;21571;-79
2022/07/25 00:37:46;;;;;;;8.50;7.72;;;;;;;18.71;93.38;99458.06;1809299;79;20956;-77
2022/07/25 00:40:14;;;;;;;11.80;8.50;;;;;;;18.75;93.31;99458.44;1827143;77;21345;-80
2022/07/25 00:42:41;;;;;;;10.25;8.63;;;;;;;18.72;93.33;99461.60;1826679;78;21079;-79
2022/07/25 00:45:09;;;;;;;10.23;7.40;;;;;;;18.69;93.41;99459.36;1826428;78;21274;-79
2022/07/25 00:47:37;;;;;;;8.60;6.78;;;;;;;18.72;93.27;99452.19;1822882;77;21124;-76
2022/07/25 00:50:05;;;;;;;8.38;7.37;;;;;;;18.74;92.94;99454.12;1798523;78;21587;-77
2022/07/25 00:52:33;;;;;;;9.50;8.55;;;;;;;18.66;93.09;99453.91;1826379;77;21735;-76
2022/07/25 00:55:00;;;;;;;7.65;6.95;;;;;;;18.57;93.43;99453.93;1826416;78;20988;-77
2022/07/25 00:57:27;;;;;;;10.10;7.85;;;;;;;18.57;93.54;99453.93;1826861;78;21083;-77
2022/07/25 00:59:55;;;;;;;9.15;7.53;;;;;;;18.58;93.51;99451.02;1826779;78;21523;-78
2022/07/25 01:02:21;;;;;;;9.20;7.55;;;;;;;18.54;93.54;99445.77;1822505;77;21027;-77
2022/07/25 01:04:49;;;;;;;9.65;7.97;;;;;;;18.48;93.55;99449.38;1821267;77;21116;-76
2022/07/25 01:07:15;;;;;;;9.35;7.45;;;;;;;18.45;93.62;99443.13;1828169;77;21043;-77
2022/07/25 01:09:42;;;;;;;10.25;7.50;;;;;;;18.50;93.30;99449.16;1827180;78;21031;-78
2022/07/25 01:12:09;;;;;;;10.30;8.38;;;;;;;18.42;93.51;99447.06;1826981;78;21059;-77
2022/07/25 01:14:39;;;;;;;9.20;8.03;;;;;;;18.33;93.62;99451.13;1813015;79;21035;-75
2022/07/25 01:17:06;;;;;;;11.53;7.72;;;;;;;18.34;93.61;99446.56;1821438;78;21173;-77
2022/07/25 01:19:32;;;;;;;9.35;7.75;;;;;;;18.38;93.32;99453.13;1815730;79;21012;-77
2022/07/25 01:21:59;;;;;;;10.20;7.55;;;;;;;18.35;93.12;99452.23;1821442;78;21071;-76
2022/07/25 01:24:26;;;;;;;10.03;7.80;;;;;;;18.26;93.44;99452.55;1823519;78;21262;-76
2022/07/25 01:26:52;;;;;;;8.65;7.90;;;;;;;18.26;93.47;99453.89;1826339;77;21012;-79
2022/07/25 01:29:20;;;;;;;8.98;7.58;;;;;;;18.30;93.09;99455.61;1813041;79;21050;-77
2022/07/25 01:31:47;;;;;;;9.00;8.10;;;;;;;18.25;93.19;99452.26;1829110;77;20900;-78
2022/07/25 01:34:13;;;;;;;8.30;7.40;;;;;;;18.18;93.36;99448.82;1831327;78;20970;-78
2022/07/25 01:36:40;;;;;;;9.05;7.60;;;;;;;18.20;93.52;99449.95;1828566;77;21476;-75
2022/07/25 01:39:07;;;;;;;9.03;8.05;;;;;;;18.25;93.21;99446.88;1801179;77;21021;-76
2022/07/25 01:41:34;;;;;;;9.70;7.78;;;;;;;18.18;93.13;99447.48;1806646;79;21543;-76
2022/07/25 01:44:00;;;;;;;9.83;7.33;;;;;;;18.12;93.24;99451.07;1806706;79;20978;-76
2022/07/25 01:46:27;;;;;;;8.53;7.15;;;;;;;18.12;93.22;99452.41;1805897;78;21040;-75
2022/07/25 01:48:54;;;;;;;10.85;7.75;;;;;;;18.15;92.93;99446.57;1801584;77;21012;-77
2022/07/25 01:51:20;;;;;;;9.78;8.78;;;;;;;18.13;93.19;99455.91;1774719;79;21071;-78
2022/07/25 01:53:47;;;;;;;8.43;7.62;;;;;;;18.08;93.39;99450.69;1776625;77;21191;-77
2022/07/25 01:56:14;;;;;;;7.20;6.50;;;;;;;18.14;93.36;99455.70;1786349;78;21005;-76
2022/07/25 01:58:42;;;;;;;9.18;8.05;;;;;;;18.22;92.83;99451.35;1804167;77;21026;-76
2022/07/25 02:01:08;;;;;;;10.65;8.55;;;;;;;18.22;92.51;99455.92;1748178;80;21032;-77
2022/07/25 02:03:34;;;;;;;8.48;7.35;;;;;;;18.15;92.54;99454.63;1804759;79;21066;-77
2022/07/25 02:06:05;;;;;;;8.13;7.03;;;;;;;18.15;92.38;99454.63;1750651;80;21664;-77
2022/07/25 02:08:33;;;;;;;8.68;7.78;;;;;;;18.16;91.68;99450.91;1806160;77;20993;-75
2022/07/25 02:10:59;;;;;;;7.90;7.10;;;;;;;18.07;91.74;99457.09;1783942;79;21026;-77
2022/07/25 02:13:26;;;;;;;9.53;7.45;;;;;;;17.96;91.82;99457.84;1749699;80;21061;-76
2022/07/25 02:15:54;;;;;;;10.68;6.95;;;;;;;17.92;91.95;99455.30;1805731;79;21524;-78
2022/07/25 02:18:20;;;;;;;7.83;7.00;;;;;;;17.93;92.07;99455.61;1806544;79;21764;-79
2022/07/25 02:20:48;;;;;;;11.93;8.10;;;;;;;17.88;92.13;99462.98;1805760;79;21013;-79
2022/07/25 02:23:15;;;;;;;11.20;7.55;;;;;;;17.81;92.40;99455.50;1806530;79;21024;-75
2022/07/25 02:25:42;;;;;;;10.43;6.83;;;;;;;17.83;92.34;99452.07;1790476;79;21057;-78
2022/07/25 02:28:09;;;;;;;12.00;7.53;;;;;;;17.86;92.02;99454.86;1775262;80;21022;-78
2022/07/25 02:30:37;;;;;;;8.80;7.58;;;;;;;17.84;92.08;99461.79;1792024;79;21032;-79
2022/07/25 02:33:05;;;;;;;9.20;7.60;;;;;;;17.76;92.04;99454.52;1809119;79;20970;-77
2022/07/25 02:35:33;;;;;;;10.53;7.15;;;;;;;17.77;91.88;99457.49;1780087;79;21486;-77
2022/07/25 02:38:02;;;;;;;9.85;7.33;;;;;;;17.78;91.85;99453.78;1809688;79;21036;-76
2022/07/25 02:40:28;;;;;;;7.75;6.92;;;;;;;17.69;91.91;99451.39;1826933;77;21031;-79
2022/07/25 02:42:55;;;;;;;8.70;6.75;;;;;;;17.61;91.99;99446.28;1803130;78;21244;-79
2022/07/25 02:45:23;;;;;;;10.68;8.43;;;;;;;17.59;92.40;99451.05;1812486;79;21551;-79
2022/07/25 02:47:50;;;;;;;9.40;7.40;;;;;;;17.56;92.76;99449.33;1825539;77;20984;-80
2022/07/25 02:50:16;;;;;;;10.23;7.40;;;;;;;17.60;92.45;99461.30;1816331;77;21059;-78
2022/07/25 02:52:44;;;;;;;8.10;7.30;;;;;;;17.64;92.20;99461.15;1794506;80;21159;-78
2022/07/25 02:55:10;;;;;;;7.92;6.33;;;;;;;17.61;92.29;99459.70;1793856;77;21138;-76
2022/07/25 02:57:37;;;;;;;7.30;6.47;;;;;;;17.57;92.11;99464.41;1780914;77;21027;-78
2022/07/25 03:00:05;;;;;;;9.50;6.60;;;;;;;17.63;91.97;99464.86;1795708;77;21036;-77
2022/07/25 03:02:32;;;;;;;7.78;6.62;;;;;;;17.67;91.69;99464.22;1802918;77;21004;-76
2022/07/25 03:04:59;;;;;;;11.00;7.08;;;;;;;17.64;91.86;99468.68;1823751;78;21031;-74
2022/07/25 03:07:26;;;;;;;9.03;6.20;;;;;;;17.64;91.91;99473.23;1826751;77;21138;-76
2022/07/25 03:09:52;;;;;;;8.28;6.10;;;;;;;17.67;91.42;99470.09;1805691;77;20988;-78
2022/07/25 03:12:19;;;;;;;11.22;6.62;;;;;;;17.69;91.48;99467.51;1810351;78;20999;-78
2022/07/25 03:14:47;;;;;;;9.43;6.55;;;;;;;17.66;91.30;99474.65;1805355;77;21567;-76
2022/07/25 03:17:14;;;;;;;8.28;6.65;;;;;;;17.59;91.39;99469.04;1794186;80;21487;-79
2022/07/25 03:19:41;;;;;;;7.60;6.30;;;;;;;17.61;91.76;99475.01;1799975;78;21139;-78
2022/07/25 03:22:08;;;;;;;25.62;22.65;;;;;;;17.69;91.59;99469.34;1810185;78;21020;-78
2022/07/25 03:24:35;;;;;;;8.45;7.05;;;;;;;17.69;91.70;99472.03;1826458;77;21070;-75
2022/07/25 03:27:02;;;;;;;7.87;7.08;;;;;;;17.67;91.48;99464.72;1827434;77;21546;-76
2022/07/25 03:29:28;;;;;;;9.90;6.45;;;;;;;17.71;91.37;99472.63;1824636;77;21039;-78
2022/07/25 03:31:54;;;;;;;7.92;6.30;;;;;;;17.78;90.99;99466.68;1794686;79;21179;-76
2022/07/25 03:34:21;;;;;;;8.93;6.22;;;;;;;17.76;90.84;99470.64;1824320;77;21080;-77
2022/07/25 03:36:47;;;;;;;9.25;6.22;;;;;;;17.74;90.77;99472.73;1826846;77;21019;-76
2022/07/25 03:39:14;;;;;;;6.92;6.20;;;;;;;17.82;90.62;99471.09;1818817;77;20925;-76
2022/07/25 03:41:41;;;;;;;7.53;6.30;;;;;;;17.86;90.20;99465.07;1830014;78;21003;-76
2022/07/25 03:44:08;;;;;;;8.78;6.75;;;;;;;17.84;90.51;99463.66;1837407;78;21837;-77
2022/07/25 03:46:35;;;;;;;7.40;6.45;;;;;;;17.85;90.71;99463.45;1835970;78;21026;-78
2022/07/25 03:49:01;;;;;;;11.93;5.85;;;;;;;17.93;90.62;99460.99;1838683;78;21085;-75
2022/07/25 03:51:28;;;;;;;12.07;6.55;;;;;;;18.05;90.22;99467.25;1834250;77;21090;-78
2022/07/25 03:54:01;;;;;;;7.78;6.15;;;;;;;18.05;89.72;99473.97;1803385;79;21039;-76
2022/07/25 03:56:32;;;;;;;8.08;6.22;;;;;;;18.05;89.58;99468.59;1822858;78;21133;-76
2022/07/25 03:58:58;;;;;;;7.10;5.65;;;;;;;18.11;89.63;99472.80;1803908;78;21529;-77
2022/07/25 04:01:25;;;;;;;10.25;7.55;;;;;;;18.22;89.24;99480.11;1835771;78;21039;-78
2022/07/25 04:03:51;;;;;;;7.72;6.65;;;;;;;18.21;88.91;99481.14;1836080;78;21003;-79
2022/07/25 04:06:18;;;;;;;9.30;6.17;;;;;;;18.18;89.07;99484.30;1835384;78;21011;-78
2022/07/25 04:08:44;;;;;;;7.15;6.10;;;;;;;18.24;89.46;99482.87;1836625;78;21058;-78
2022/07/25 04:11:11;;;;;;;7.97;6.33;;;;;;;18.37;88.86;99485.09;1835467;78;21027;-77
2022/07/25 04:13:38;;;;;;;8.08;6.42;;;;;;;18.38;88.38;99488.09;1834970;78;21066;-79
2022/07/25 04:16:05;;;;;;;6.33;5.53;;;;;;;18.34;87.97;99487.72;1822831;78;21531;-78
2022/07/25 04:18:33;;;;;;;10.72;5.97;;;;;;;18.36;88.11;99490.19;1836071;78;21063;-78
2022/07/25 04:20:59;;;;;;;9.83;6.55;;;;;;;18.44;87.71;99485.84;1836283;78;21187;-78
2022/07/25 04:23:27;;;;;;;8.45;6.42;;;;;;;18.47;87.49;99486.75;1809030;78;21536;-78
2022/07/25 04:25:55;;;;;;;6.45;5.85;;;;;;;18.46;87.35;99481.05;1834104;78;21103;-79
2022/07/25 04:28:21;;;;;;;7.75;6.92;;;;;;;18.46;86.71;99483.74;1830848;78;21004;-77
2022/07/25 04:30:49;;;;;;;8.05;6.70;;;;;;;18.50;87.11;99484.12;1834798;78;21038;-79
2022/07/25 04:33:15;;;;;;;10.95;6.37;;;;;;;18.51;87.35;99485.24;1837909;78;21350;-77
2022/07/25 04:35:42;;;;;;;8.13;6.65;;;;;;;18.53;86.96;99483.67;1836316;77;21051;-76
2022/07/25 04:38:08;;;;;;;7.47;6.55;;;;;;;18.58;86.95;99491.88;1837402;78;21027;-78
2022/07/25 04:40:35;;;;;;;9.73;7.22;;;;;;;18.65;86.21;99489.92;1831785;77;21085;-78
2022/07/25 04:43:01;;;;;;;7.47;6.70;;;;;;;18.61;86.94;99484.17;1825475;78;21074;-77
2022/07/25 04:45:28;;;;;;;11.60;7.45;;;;;;;18.60;86.74;99484.39;1837130;77;21232;-77
2022/07/25 04:47:54;;;;;;;9.50;6.70;;;;;;;18.64;86.72;99489.11;1836604;78;20992;-77
2022/07/25 04:50:21;;;;;;;7.35;6.60;;;;;;;18.73;86.85;99486.09;1836451;78;21027;-79
2022/07/25 04:54:35;;;;;;;11.28;7.15;;;;;;;18.78;86.20;99488.94;1854345;77;22573;-77
2022/07/25 04:57:03;;;;;;;7.28;6.20;;;;;;;18.76;86.25;99491.03;1828564;76;21054;-78
2022/07/25 04:59:30;;;;;;;8.75;7.85;;;;;;;18.84;86.22;99494.78;1824525;76;21234;-77
2022/07/25 05:01:57;;;;;;;9.83;7.05;;;;;;;18.86;86.39;99496.18;1823105;76;21029;-77
2022/07/25 05:04:23;;;;;;;12.53;7.97;;;;;;;18.84;85.97;99492.90;1801135;76;21017;-77
2022/07/25 05:06:49;;;;;;;11.95;7.58;;;;;;;18.92;85.67;99495.80;1802885;76;21561;-77
2022/07/25 05:09:17;;;;;;;7.92;7.05;;;;;;;18.96;85.92;99505.58;1828747;76;21051;-78
2022/07/25 05:11:44;;;;;;;7.40;6.60;;;;;;;18.98;85.79;99494.06;1828402;76;21048;-75
2022/07/25 05:14:10;;;;;;;9.30;7.33;;;;;;;19.07;85.61;99494.57;1827036;76;20951;-77
2022/07/25 05:16:36;;;;;;;10.58;7.30;;;;;;;19.19;85.38;99492.19;1827740;76;21105;-77
2022/07/25 05:19:03;;;;;;;11.20;8.10;;;;;;;19.24;85.31;99491.52;1830029;76;21096;-77
2022/07/25 05:21:29;;;;;;;8.40;7.50;;;;;;;19.28;85.12;99494.53;1803577;78;21093;-77
2022/07/25 05:23:56;;;;;;;7.05;6.35;;;;;;;19.35;84.53;99496.08;1816470;76;21136;-77
2022/07/25 05:26:24;;;;;;;9.48;7.70;;;;;;;19.44;84.39;99500.08;1831895;76;20983;-78
2022/07/25 05:28:50;;;;;;;11.28;8.08;;;;;;;19.45;84.21;99500.39;1826713;77;21078;-77
2022/07/25 05:31:17;;;;;;;8.63;6.90;;;;;;;19.47;84.54;99499.31;1824453;76;21053;-78
2022/07/25 05:33:43;;;;;;;12.88;8.33;;;;;;;19.54;83.71;99499.50;1826591;77;21057;-77
2022/07/25 05:36:12;;;;;;;10.20;7.58;;;;;;;19.61;84.10;99495.36;1827280;78;21119;-78
2022/07/25 05:38:39;;;;;;;11.88;8.63;;;;;;;19.61;83.92;99498.06;1826681;76;21140;-77
2022/07/25 05:41:06;;;;;;;9.53;7.50;;;;;;;19.62;84.24;99496.98;1826866;76;21129;-75
2022/07/25 05:43:34;;;;;;;10.55;7.97;;;;;;;19.71;83.37;99498.83;1827076;76;21162;-75
2022/07/25 05:46:02;;;;;;;10.50;6.92;;;;;;;19.79;83.32;99499.84;1827463;76;21023;-76
2022/07/25 05:48:28;;;;;;;9.35;7.05;;;;;;;19.80;82.79;99497.46;1826820;76;21230;-76
2022/07/25 05:50:56;;;;;;;10.58;7.15;;;;;;;19.78;82.84;99499.54;1817130;76;21064;-76
2022/07/25 05:53:23;;;;;;;10.43;7.62;;;;;;;19.81;82.63;99495.85;1827951;78;21109;-77
2022/07/25 05:55:50;;;;;;;9.13;7.67;;;;;;;19.92;82.71;99492.06;1812563;76;21029;-76
2022/07/25 05:58:16;;;;;;;10.32;8.23;;;;;;;19.99;83.12;99488.19;1827057;76;21069;-75
2022/07/25 06:00:43;;;;;;;10.08;7.62;;;;;;;20.08;82.56;99492.67;1824805;76;21119;-78
2022/07/25 06:03:11;;;;;;;8.45;6.95;;;;;;;20.17;82.06;99493.95;1827208;78;21040;-76
2022/07/25 06:05:38;;;;;;;10.93;7.60;;;;;;;20.27;81.12;99489.84;1828543;78;21043;-78
2022/07/25 06:08:05;;;;;;;13.45;8.68;;;;;;;20.26;80.73;99487.66;1820544;76;21086;-76
2022/07/25 06:10:32;;;;;;;8.48;7.53;;;;;;;20.25;81.36;99489.27;1828108;78;21015;-74
2022/07/25 06:12:59;;;;;;;10.00;7.12;;;;;;;20.36;81.34;99485.73;1827682;76;21130;-76
2022/07/25 06:15:26;;;;;;;10.58;7.55;;;;;;;20.47;80.22;99482.15;1823339;76;21501;-75
2022/07/25 06:17:53;;;;;;;9.10;7.92;;;;;;;20.44;80.19;99488.04;1826259;76;21104;-76
2022/07/25 06:20:21;;;;;;;9.93;7.03;;;;;;;20.40;79.96;99484.19;1825929;76;21546;-76
2022/07/25 06:22:48;;;;;;;10.00;7.55;;;;;;;20.41;79.61;99480.41;1823539;76;21044;-77
2022/07/25 06:25:14;;;;;;;9.23;7.60;;;;;;;20.39;79.59;99483.34;1828723;78;21242;-76
2022/07/25 06:27:40;;;;;;;9.88;7.83;;;;;;;20.34;79.96;99489.16;1826309;78;21120;-75
2022/07/25 06:30:08;;;;;;;9.70;7.83;;;;;;;20.28;79.85;99477.98;1827085;76;21051;-78
2022/07/25 06:32:36;;;;;;;11.83;8.38;;;;;;;20.31;80.22;99476.17;1826926;76;21517;-77
2022/07/25 06:35:05;;;;;;;12.40;7.78;;;;;;;20.39;80.05;99477.95;1829015;78;21006;-77
2022/07/25 06:37:31;;;;;;;9.78;7.40;;;;;;;20.43;80.27;99475.59;1830486;77;21130;-78
2022/07/25 06:39:59;;;;;;;11.50;7.62;;;;;;;20.48;80.38;99472.20;1827977;78;22161;-76
2022/07/25 06:42:29;;;;;;;7.35;6.62;;;;;;;20.54;80.76;99481.48;1827819;76;21061;-76
2022/07/25 06:44:55;;;;;;;8.80;7.45;;;;;;;20.69;80.21;99474.80;1821293;78;21081;-77
2022/07/25 06:47:22;;;;;;;10.70;7.10;;;;;;;20.85;79.72;99475.89;1808530;78;20998;-78
2022/07/25 06:49:49;;;;;;;8.83;7.10;;;;;;;20.95;79.47;99475.53;1828875;76;21086;-76
2022/07/25 06:52:15;;;;;;;8.10;7.20;;;;;;;21.08;78.68;99465.50;1822921;76;21050;-76
2022/07/25 06:54:41;;;;;;;8.55;7.05;;;;;;;21.18;78.80;99468.37;1817490;77;21094;-73
2022/07/25 06:57:08;;;;;;;9.23;6.90;;;;;;;21.36;78.48;99468.14;1806825;77;21024;-77
2022/07/25 06:59:35;;;;;;;10.63;7.05;;;;;;;21.57;77.29;99472.53;1805613;79;21016;-76
2022/07/25 07:02:01;;;;;;;9.15;7.33;;;;;;;21.62;76.95;99473.16;1809369;78;21190;-77
2022/07/25 07:04:28;;;;;;;8.25;7.33;;;;;;;21.63;76.03;99476.13;1810583;77;21313;-76
2022/07/25 07:06:54;;;;;;;12.43;7.03;;;;;;;21.65;75.83;99479.41;1809396;77;21474;-76
2022/07/25 07:09:21;;;;;;;13.48;7.30;;;;;;;21.69;75.70;99465.16;1816516;77;21048;-79
2022/07/25 07:11:47;;;;;;;7.65;6.70;;;;;;;21.87;75.38;99464.06;1818697;77;21037;-79
2022/07/25 07:14:14;;;;;;;10.20;8.03;;;;;;;22.02;75.37;99468.87;1816150;79;21103;-79
2022/07/25 07:16:42;;;;;;;9.93;6.60;;;;;;;22.12;75.00;99471.70;1787648;79;20974;-76
2022/07/25 07:19:13;;;;;;;8.78;6.70;;;;;;;22.23;73.51;99471.28;1806091;79;22200;-79
2022/07/25 07:21:41;;;;;;;7.90;6.65;;;;;;;22.29;73.19;99473.03;1785908;80;21033;-77
2022/07/25 07:24:08;;;;;;;8.23;6.55;;;;;;;22.37;72.86;99467.72;1793613;79;21498;-78
2022/07/25 07:26:34;;;;;;;8.78;6.85;;;;;;;22.54;72.71;99458.98;1818219;79;21822;-77
2022/07/25 07:29:04;;;;;;;8.10;6.20;;;;;;;22.69;72.57;99465.63;1817285;79;21002;-77
2022/07/25 07:31:30;;;;;;;8.20;6.55;;;;;;;22.75;71.78;99460.02;1815288;79;22106;-76
2022/07/25 07:33:58;;;;;;;7.62;6.30;;;;;;;22.75;71.09;99462.73;1816283;79;21048;-77
2022/07/25 07:36:25;;;;;;;8.10;6.33;;;;;;;22.73;70.92;99466.74;1812608;79;21466;-79
2022/07/25 07:38:51;;;;;;;9.28;6.90;;;;;;;22.70;70.32;99464.02;1815275;79;21151;-79
2022/07/25 07:41:18;;;;;;;6.65;6.05;;;;;;;22.73;70.23;99457.27;1812638;77;20990;-77
2022/07/25 07:56:34;;;;;;;7.92;5.67;;;;;;;24.21;66.53;99460.86;1790431;79;22125;-77
2022/07/25 07:59:00;;;;;;;8.50;5.55;;;;;;;24.28;65.54;99459.53;1753577;81;21034;-75
2022/07/25 08:01:27;;;;;;;7.67;6.15;;;;;;;24.28;65.01;99459.53;1745547;81;21074;-76
2022/07/25 08:03:53;;;;;;;8.35;6.35;;;;;;;24.26;64.99;99454.91;1731928;81;21060;-76
2022/07/25 08:06:19;;;;;;;6.95;6.10;;;;;;;24.22;65.29;99457.89;1751941;82;20970;-76
2022/07/25 08:08:47;;;;;;;8.28;6.17;;;;;;;24.14;66.03;99460.56;1751936;82;21002;-76
2022/07/25 08:11:14;;;;;;;7.85;5.80;;;;;;;24.07;65.39;99456.46;1751787;82;21191;-77
2022/07/25 08:13:40;;;;;;;6.90;6.30;;;;;;;23.94;65.33;99460.45;1751889;82;21135;-78
2022/07/25 08:16:10;;;;;;;9.15;5.90;;;;;;;23.81;65.21;99453.59;1763635;80;21121;-80
2022/07/25 08:18:37;;;;;;;7.08;6.42;;;;;;;23.70;65.60;99458.64;1756779;80;21127;-77
2022/07/25 08:21:05;;;;;;;7.08;5.90;;;;;;;23.59;65.73;99461.84;1761397;79;20998;-80
2022/07/25 08:23:37;;;;;;;7.55;6.28;;;;;;;23.46;65.99;99459.58;1782218;79;21106;-76
2022/07/25 08:26:05;;;;;;;7.05;6.35;;;;;;;23.40;66.44;99470.91;1769265;81;21222;-77
2022/07/25 08:28:31;;;;;;;6.75;6.15;;;;;;;23.41;66.70;99464.95;1769168;81;21027;-77
2022/07/25 08:30:58;;;;;;;7.85;5.50;;;;;;;23.48;66.79;99460.13;1769259;81;21137;-78
2022/07/25 08:33:25;;;;;;;6.87;5.65;;;;;;;23.60;66.56;99459.39;1780771;79;21097;-78
2022/07/25 08:35:53;;;;;;;5.83;5.22;;;;;;;23.79;66.05;99461.72;1789140;79;21048;-77
2022/07/25 08:38:21;;;;;;;6.37;5.50;;;;;;;23.86;65.01;99467.73;1782041;80;21774;-79
2022/07/25 08:40:48;;;;;;;8.88;5.62;;;;;;;23.81;64.74;99469.86;1771030;80;21010;-79
2022/07/25 08:43:15;;;;;;;5.42;4.90;;;;;;;23.75;64.11;99468.98;1756612;81;21018;-78
2022/07/25 08:45:45;;;;;;;6.10;5.45;;;;;;;23.68;63.76;99475.20;1754642;81;21005;-79
2022/07/25 08:48:11;;;;;;;9.08;6.17;;;;;;;23.66;64.22;99473.28;1753792;81;21040;-80
2022/07/25 08:50:38;;;;;;;6.92;5.58;;;;;;;23.69;64.80;99471.39;1753704;81;21544;-78
2022/07/25 08:53:04;;;;;;;7.30;6.30;;;;;;;23.77;64.65;99470.08;1752761;80;21178;-77
2022/07/25 08:55:32;;;;;;;8.55;6.42;;;;;;;23.80;64.79;99472.83;1753343;81;21044;-78
2022/07/25 08:57:59;;;;;;;8.20;5.97;;;;;;;23.84;64.36;99464.48;1756070;81;21067;-77
2022/07/25 09:00:30;;;;;;;6.20;5.60;;;;;;;23.85;64.10;99458.77;1756367;81;21040;-77
2022/07/25 09:03:01;;;;;;;7.08;5.95;;;;;;;23.88;65.34;99460.16;1757843;80;21235;-78
2022/07/25 09:05:30;;;;;;;8.18;5.80;;;;;;;23.98;64.51;99458.84;1758537;80;21005;-77
2022/07/25 09:08:14;;;;;;;6.55;5.85;;;;;;;24.19;63.53;99463.83;1765420;80;21559;-79
2022/07/25 09:10:50;;;;;;;7.17;5.85;;;;;;;24.29;63.18;99459.80;1765026;80;21120;-76
2022/07/25 09:13:18;;;;;;;6.70;5.62;;;;;;;24.32;63.10;99459.27;1781115;80;21052;-75
2022/07/25 09:15:50;;;;;;;7.28;5.40;;;;;;;24.30;63.09;99464.70;1768987;80;21926;-74
2022/07/25 09:18:23;;;;;;;8.85;5.72;;;;;;;24.27;62.89;99459.80;1759578;80;21579;-75
2022/07/25 09:20:53;;;;;;;7.40;5.30;;;;;;;24.34;62.40;99454.39;1766966;80;21032;-76
2022/07/25 09:23:38;;;;;;;6.47;5.50;;;;;;;24.55;62.20;99452.30;1764444;80;21068;-75
2022/07/25 09:26:09;;;;;;;6.45;5.83;;;;;;;24.74;61.14;99450.72;1763787;80;21107;-76
2022/07/25 09:28:52;;;;;;;6.75;5.08;;;;;;;24.84;60.79;99449.40;1758334;80;21089;-74
2022/07/25 09:31:31;;;;;;;7.33;6.05;;;;;;;24.86;60.24;99459.97;1752586;80;21062;-76
2022/07/25 09:33:59;;;;;;;6.27;5.43;;;;;;;24.76;59.86;99458.05;1757304;80;21000;-77
2022/07/25 09:36:26;;;;;;;7.00;5.55;;;;;;;24.63;60.84;99462.13;1773725;80;21048;-79
2022/07/25 09:38:55;;;;;;;6.05;5.45;;;;;;;24.51;61.37;99465.08;1761547;80;21233;-78
2022/07/25 09:41:35;;;;;;;5.72;5.03;;;;;;;24.54;62.99;99458.28;1755336;80;21041;-77
2022/07/25 09:44:02;;;;;;;5.83;5.30;;;;;;;24.71;63.88;99458.06;1771089;80;21005;-78
2022/07/25 09:46:30;;;;;;;6.62;4.95;;;;;;;25.07;61.51;99458.09;1759008;80;20971;-77
2022/07/25 09:48:58;;;;;;;7.40;5.22;;;;;;;25.43;59.78;99446.70;1762423;80;21867;-77
2022/07/25 09:51:25;;;;;;;7.10;5.15;;;;;;;25.66;58.58;99446.67;1772248;80;21001;-77
2022/07/25 09:53:52;;;;;;;6.05;5.33;;;;;;;25.90;59.77;99455.59;1774612;80;21046;-76
2022/07/25 09:56:18;;;;;;;6.92;5.75;;;;;;;26.09;59.46;99453.12;1765201;80;21048;-78
2022/07/25 09:58:45;;;;;;;6.25;5.08;;;;;;;26.40;58.78;99447.55;1779301;80;21053;-76
2022/07/25 10:01:19;;;;;;;8.23;5.40;;;;;;;26.67;59.06;99433.53;1763449;80;21016;-76
2022/07/25 10:04:18;;;;;;;5.83;5.23;;;;;;;26.98;56.76;99444.22;1781450;80;21126;-77
2022/07/25 10:07:03;;;;;;;5.22;4.72;;;;;;;27.08;55.35;99446.86;1781265;80;21122;-76
2022/07/25 10:09:30;;;;;;;5.22;4.83;;;;;;;27.06;54.58;99446.33;1778971;80;21061;-75
2022/07/25 10:12:07;;;;;;;7.35;5.12;;;;;;;27.16;55.05;99440.81;1742950;80;21052;-75
2022/07/25 10:14:35;;;;;;;5.72;4.83;;;;;;;27.39;56.88;99437.09;1739266;80;21527;-75
2022/07/25 10:17:02;;;;;;;5.70;5.12;;;;;;;27.63;55.33;99438.50;1760548;80;21115;-75
2022/07/25 10:19:41;;;;;;;5.53;4.47;;;;;;;27.74;55.23;99446.02;1748688;80;21280;-76
2022/07/25 10:22:08;;;;;;;5.72;4.30;;;;;;;27.74;54.74;99444.13;1733038;80;21049;-75
2022/07/25 10:24:37;;;;;;;5.37;4.25;;;;;;;27.61;53.15;99446.97;1767812;80;21020;-75
2022/07/25 10:27:10;;;;;;;4.08;3.58;;;;;;;27.42;53.22;99444.70;1758267;80;21072;-74
2022/07/25 10:29:37;;;;;;;;;;;;;;;27.21;53.69;99443.48;1777540;80;21003;-75
2022/07/25 10:32:07;;;;;;;6.60;4.70;;;;;;;27.01;55.61;99440.38;1768642;80;21093;-74
2022/07/25 10:34:34;;;;;;;8.85;4.85;;;;;;;26.87;55.62;99444.30;1779194;80;21622;-73
2022/07/25 10:37:17;;;;;;;5.45;4.62;;;;;;;26.93;56.66;99445.08;1763808;80;21071;-75
2022/07/25 10:39:44;;;;;;;8.53;5.10;;;;;;;27.18;56.47;99448.16;1753973;80;21009;-75
2022/07/25 10:42:14;;;;;;;5.08;4.42;;;;;;;27.31;55.52;99445.34;1753443;80;21103;-76
2022/07/25 10:44:45;;;;;;;6.42;4.58;;;;;;;27.34;55.85;99442.05;1774948;80;21141;-73
2022/07/25 10:47:15;;;;;;;5.97;4.87;;;;;;;27.25;54.50;99448.69;1760416;80;21485;-74
2022/07/25 10:49:46;;;;;;;5.28;4.72;;;;;;;27.06;54.18;99451.26;1766570;80;21063;-77
2022/07/25 10:52:16;;;;;;;5.15;4.65;;;;;;;26.86;54.66;99441.30;1758380;80;21040;-76
2022/07/25 10:54:56;;;;;;;6.30;5.70;;;;;;;26.88;56.40;99441.83;1770515;80;21040;-76
2022/07/25 10:57:23;;;;;;;5.95;5.40;;;;;;;27.18;56.37;99445.99;1764227;80;21126;-77
2022/07/25 10:59:49;;;;;;;7.22;5.92;;;;;;;27.50;54.96;99437.26;1765548;80;21127;-77
2022/07/25 11:02:16;;;;;;;5.72;5.22;;;;;;;27.81;53.40;99434.22;1772034;80;21049;-77
2022/07/25 11:04:44;;;;;;;8.93;6.05;;;;;;;27.99;52.30;99432.14;1757770;80;21076;-77
2022/07/25 11:07:15;;;;;;;6.58;5.12;;;;;;;28.00;52.13;99436.48;1775018;80;21053;-75
2022/07/25 11:09:42;;;;;;;7.08;6.08;;;;;;;27.93;52.03;99433.84;1768175;80;21595;-76
2022/07/25 11:12:15;;;;;;;8.10;5.95;;;;;;;27.87;51.70;99439.88;1775411;80;21654;-78
2022/07/25 11:14:42;;;;;;;6.85;4.90;;;;;;;27.75;52.06;99433.45;1780250;80;21032;-77
2022/07/25 11:17:17;;;;;;;4.70;4.28;;;;;;;27.92;52.10;99437.13;1754206;80;21056;-75
2022/07/25 11:20:06;;;;;;;5.33;4.15;;;;;;;28.17;51.56;99433.84;1740165;79;21068;-76
2022/07/25 11:22:34;;;;;;;5.67;4.97;;;;;;;28.39;50.48;99427.80;1760455;79;21188;-75
2022/07/25 11:25:13;;;;;;;6.17;5.05;;;;;;;28.44;50.10;99419.55;1774591;80;21124;-76
2022/07/25 11:27:40;;;;;;;7.33;5.72;;;;;;;28.42;49.84;99422.56;1756201;79;21567;-75
2022/07/25 11:30:09;;;;;;;7.05;4.60;;;;;;;28.33;50.57;99425.69;1738245;80;21053;-75
2022/07/25 11:32:43;;;;;;;5.20;4.70;;;;;;;28.17;50.82;99424.28;1752753;80;21033;-76
2022/07/25 11:35:10;;;;;;;;;;;;;;;27.90;50.97;99427.05;1764248;80;21237;-76
2022/07/25 11:37:39;;;;;;;6.85;4.60;;;;;;;27.58;51.12;99429.00;1742361;80;20166;-75
2022/07/25 11:40:06;;;;;;;5.03;4.37;;;;;;;27.18;51.98;99433.16;1755683;79;21528;-77
2022/07/25 11:42:42;;;;;;;4.33;3.92;;;;;;;26.84;52.80;99429.87;1741102;80;21024;-77
2022/07/25 11:45:29;;;;;;;4.22;3.85;;;;;;;26.54;53.60;99425.42;1764174;80;21040;-78
2022/07/25 11:48:08;;;;;;;7.62;4.67;;;;;;;26.23;54.52;99429.67;1742728;80;21233;-73
2022/07/25 11:50:42;;;;;;;5.05;4.08;;;;;;;25.99;55.26;99423.23;1735901;80;21049;-76